sensor_id;sensor_type;location;lat;lon;timestamp;temperature;humidity
23731;DHT22;12046;44.702;10.622;2023-12-20T00:02:22;6.70;98.30
23731;DHT22;12046;44.702;10.622;2023-12-20T00:04:47;6.70;98.40
23731;DHT22;12046;44.702;10.622;2023-12-20T00:07:13;6.70;98.50
23731;DHT22;12046;44.702;10.622;2023-12-20T00:09:39;6.60;98.70
23731;DHT22;12046;44.702;10.622;2023-12-20T00:12:05;6.60;98.50
23731;DHT22;12046;44.702;10.622;2023-12-20T00:14:31;6.50;98.50
23731;DHT22;12046;44.702;10.622;2023-12-20T00:16:56;6.40;98.60
23731;DHT22;12046;44.702;10.622;2023-12-20T00:19:22;6.30;98.70
23731;DHT22;12046;44.702;10.622;2023-12-20T00:21:48;6.30;98.80
23731;DHT22;12046;44.702;10.622;2023-12-20T00:24:14;6.20;99.00
23731;DHT22;12046;44.702;10.622;2023-12-20T00:26:39;6.10;99.10
23731;DHT22;12046;44.702;10.622;2023-12-20T00:29:05;6.10;99.30
23731;DHT22;12046;44.702;10.622;2023-12-20T00:31:31;6.00;99.30
23731;DHT22;12046;44.702;10.622;2023-12-20T00:33:57;6.00;99.50
23731;DHT22;12046;44.702;10.622;2023-12-20T00:36:23;6.00;99.70
23731;DHT22;12046;44.702;10.622;2023-12-20T00:38:49;5.90;99.90
23731;DHT22;12046;44.702;10.622;2023-12-20T00:41:15;5.90;99.90
23731;DHT22;12046;44.702;10.622;2023-12-20T00:43:41;6.00;99.90
23731;DHT22;12046;44.702;10.622;2023-12-20T00:46:07;6.00;99.90
23731;DHT22;12046;44.702;10.622;2023-12-20T00:48:33;6.00;99.90
23731;DHT22;12046;44.702;10.622;2023-12-20T00:50:59;6.00;99.90
23731;DHT22;12046;44.702;10.622;2023-12-20T00:53:24;6.00;99.90
23731;DHT22;12046;44.702;10.622;2023-12-20T00:55:50;6.10;99.90
23731;DHT22;12046;44.702;10.622;2023-12-20T00:58:16;6.10;99.90
23731;DHT22;12046;44.702;10.622;2023-12-20T01:00:43;6.20;99.90
23731;DHT22;12046;44.702;10.622;2023-12-20T01:03:09;6.20;99.90
23731;DHT22;12046;44.702;10.622;2023-12-20T01:05:35;6.20;99.90
23731;DHT22;12046;44.702;10.622;2023-12-20T01:08:00;6.20;99.90
23731;DHT22;12046;44.702;10.622;2023-12-20T01:10:28;6.20;99.90
23731;DHT22;12046;44.702;10.622;2023-12-20T01:12:55;6.30;99.90
23731;DHT22;12046;44.702;10.622;2023-12-20T01:15:21;6.20;99.90
23731;DHT22;12046;44.702;10.622;2023-12-20T01:17:47;6.30;99.90
23731;DHT22;12046;44.702;10.622;2023-12-20T01:20:13;6.30;99.90
23731;DHT22;12046;44.702;10.622;2023-12-20T01:22:39;6.30;99.90
23731;DHT22;12046;44.702;10.622;2023-12-20T01:25:05;6.30;99.90
23731;DHT22;12046;44.702;10.622;2023-12-20T01:27:30;6.30;99.90
23731;DHT22;12046;44.702;10.622;2023-12-20T01:29:57;6.30;99.90
23731;DHT22;12046;44.702;10.622;2023-12-20T01:32:22;6.20;99.90
23731;DHT22;12046;44.702;10.622;2023-12-20T01:34:48;6.20;99.90
23731;DHT22;12046;44.702;10.622;2023-12-20T01:37:14;6.10;99.90
23731;DHT22;12046;44.702;10.622;2023-12-20T01:39:40;6.10;99.90
23731;DHT22;12046;44.702;10.622;2023-12-20T01:42:06;6.00;99.90
23731;DHT22;12046;44.702;10.622;2023-12-20T01:44:31;6.00;99.90
23731;DHT22;12046;44.702;10.622;2023-12-20T01:46:57;6.00;99.90
23731;DHT22;12046;44.702;10.622;2023-12-20T01:49:23;6.00;99.90
23731;DHT22;12046;44.702;10.622;2023-12-20T01:51:50;5.90;99.90
23731;DHT22;12046;44.702;10.622;2023-12-20T01:54:16;5.90;99.90
23731;DHT22;12046;44.702;10.622;2023-12-20T01:56:43;5.90;99.90
23731;DHT22;12046;44.702;10.622;2023-12-20T01:59:09;5.90;99.90
23731;DHT22;12046;44.702;10.622;2023-12-20T02:01:35;5.90;99.90
23731;DHT22;12046;44.702;10.622;2023-12-20T02:04:02;5.80;99.90
23731;DHT22;12046;44.702;10.622;2023-12-20T02:06:30;5.80;99.90
23731;DHT22;12046;44.702;10.622;2023-12-20T02:08:59;5.80;99.90
23731;DHT22;12046;44.702;10.622;2023-12-20T02:11:25;5.80;99.90
23731;DHT22;12046;44.702;10.622;2023-12-20T02:13:51;5.80;99.90
23731;DHT22;12046;44.702;10.622;2023-12-20T02:16:17;5.70;99.90
23731;DHT22;12046;44.702;10.622;2023-12-20T02:18:44;5.70;99.90
23731;DHT22;12046;44.702;10.622;2023-12-20T02:21:10;5.80;99.90
23731;DHT22;12046;44.702;10.622;2023-12-20T02:23:36;5.70;99.90
23731;DHT22;12046;44.702;10.622;2023-12-20T02:26:02;5.70;99.90
23731;DHT22;12046;44.702;10.622;2023-12-20T02:28:28;5.70;99.90
23731;DHT22;12046;44.702;10.622;2023-12-20T02:30:55;5.70;99.90
23731;DHT22;12046;44.702;10.622;2023-12-20T02:33:21;5.60;99.90
23731;DHT22;12046;44.702;10.622;2023-12-20T02:35:46;5.60;99.90
23731;DHT22;12046;44.702;10.622;2023-12-20T02:38:13;5.60;99.90
23731;DHT22;12046;44.702;10.622;2023-12-20T02:40:39;5.50;99.90
23731;DHT22;12046;44.702;10.622;2023-12-20T02:43:05;5.40;99.90
23731;DHT22;12046;44.702;10.622;2023-12-20T02:45:31;5.40;99.90
23731;DHT22;12046;44.702;10.622;2023-12-20T02:47:57;5.30;99.90
23731;DHT22;12046;44.702;10.622;2023-12-20T02:50:22;5.30;99.90
23731;DHT22;12046;44.702;10.622;2023-12-20T02:52:48;5.20;99.90
23731;DHT22;12046;44.702;10.622;2023-12-20T02:55:14;5.20;99.90
23731;DHT22;12046;44.702;10.622;2023-12-20T02:57:40;5.10;99.90
23731;DHT22;12046;44.702;10.622;2023-12-20T03:00:09;5.10;99.90
23731;DHT22;12046;44.702;10.622;2023-12-20T03:02:35;4.90;99.90
23731;DHT22;12046;44.702;10.622;2023-12-20T03:05:02;4.90;99.90
23731;DHT22;12046;44.702;10.622;2023-12-20T03:07:28;4.80;99.90
23731;DHT22;12046;44.702;10.622;2023-12-20T03:09:54;4.80;99.90
23731;DHT22;12046;44.702;10.622;2023-12-20T03:12:19;4.80;99.90
23731;DHT22;12046;44.702;10.622;2023-12-20T03:14:45;4.80;99.90
23731;DHT22;12046;44.702;10.622;2023-12-20T03:17:11;4.80;99.90
23731;DHT22;12046;44.702;10.622;2023-12-20T03:19:37;4.70;99.90
23731;DHT22;12046;44.702;10.622;2023-12-20T03:22:03;4.70;99.90
23731;DHT22;12046;44.702;10.622;2023-12-20T03:24:28;4.70;99.90
23731;DHT22;12046;44.702;10.622;2023-12-20T03:26:54;4.70;99.90
23731;DHT22;12046;44.702;10.622;2023-12-20T03:29:20;4.70;99.90
23731;DHT22;12046;44.702;10.622;2023-12-20T03:31:46;4.70;99.90
23731;DHT22;12046;44.702;10.622;2023-12-20T03:34:11;4.60;99.90
23731;DHT22;12046;44.702;10.622;2023-12-20T03:36:37;4.60;99.90
23731;DHT22;12046;44.702;10.622;2023-12-20T03:39:04;4.60;99.90
23731;DHT22;12046;44.702;10.622;2023-12-20T03:41:31;4.50;99.90
23731;DHT22;12046;44.702;10.622;2023-12-20T03:43:56;4.50;99.90
23731;DHT22;12046;44.702;10.622;2023-12-20T03:46:22;4.40;99.90
23731;DHT22;12046;44.702;10.622;2023-12-20T03:48:48;4.30;99.90
23731;DHT22;12046;44.702;10.622;2023-12-20T03:51:14;4.30;99.90
23731;DHT22;12046;44.702;10.622;2023-12-20T03:53:40;4.30;99.90
23731;DHT22;12046;44.702;10.622;2023-12-20T03:56:06;4.30;99.90
23731;DHT22;12046;44.702;10.622;2023-12-20T03:58:32;4.30;99.90
23731;DHT22;12046;44.702;10.622;2023-12-20T04:00:58;4.30;99.90
23731;DHT22;12046;44.702;10.622;2023-12-20T04:03:23;4.40;99.90
23731;DHT22;12046;44.702;10.622;2023-12-20T04:05:49;4.40;99.90
23731;DHT22;12046;44.702;10.622;2023-12-20T04:08:15;4.50;99.90
23731;DHT22;12046;44.702;10.622;2023-12-20T04:10:41;4.50;99.90
23731;DHT22;12046;44.702;10.622;2023-12-20T04:13:06;4.60;99.90
23731;DHT22;12046;44.702;10.622;2023-12-20T04:15:32;4.70;99.90
23731;DHT22;12046;44.702;10.622;2023-12-20T04:17:58;4.70;99.90
23731;DHT22;12046;44.702;10.622;2023-12-20T04:20:24;4.80;99.90
23731;DHT22;12046;44.702;10.622;2023-12-20T04:22:50;4.90;99.90
23731;DHT22;12046;44.702;10.622;2023-12-20T04:25:16;5.00;99.90
23731;DHT22;12046;44.702;10.622;2023-12-20T04:27:41;5.00;99.90
23731;DHT22;12046;44.702;10.622;2023-12-20T04:30:07;5.10;99.90
23731;DHT22;12046;44.702;10.622;2023-12-20T04:32:34;5.10;99.90
23731;DHT22;12046;44.702;10.622;2023-12-20T04:35:00;5.10;99.90
23731;DHT22;12046;44.702;10.622;2023-12-20T04:37:26;5.20;99.90
23731;DHT22;12046;44.702;10.622;2023-12-20T04:39:52;5.20;99.90
23731;DHT22;12046;44.702;10.622;2023-12-20T04:42:18;5.20;99.90
23731;DHT22;12046;44.702;10.622;2023-12-20T04:44:44;5.20;99.90
23731;DHT22;12046;44.702;10.622;2023-12-20T04:47:10;5.20;99.90
23731;DHT22;12046;44.702;10.622;2023-12-20T04:49:35;5.20;99.90
23731;DHT22;12046;44.702;10.622;2023-12-20T04:52:01;5.10;99.90
23731;DHT22;12046;44.702;10.622;2023-12-20T04:54:27;5.10;99.90
23731;DHT22;12046;44.702;10.622;2023-12-20T04:56:53;5.10;99.90
23731;DHT22;12046;44.702;10.622;2023-12-20T04:59:19;5.10;99.90
23731;DHT22;12046;44.702;10.622;2023-12-20T05:01:45;5.10;99.90
23731;DHT22;12046;44.702;10.622;2023-12-20T05:04:11;5.00;99.90
23731;DHT22;12046;44.702;10.622;2023-12-20T05:06:37;5.00;99.90
23731;DHT22;12046;44.702;10.622;2023-12-20T05:09:03;5.00;99.90
23731;DHT22;12046;44.702;10.622;2023-12-20T05:11:28;5.00;99.90
23731;DHT22;12046;44.702;10.622;2023-12-20T05:13:54;5.00;99.90
23731;DHT22;12046;44.702;10.622;2023-12-20T05:16:20;4.90;99.90
23731;DHT22;12046;44.702;10.622;2023-12-20T05:18:48;4.80;99.90
23731;DHT22;12046;44.702;10.622;2023-12-20T05:21:14;4.80;99.90
23731;DHT22;12046;44.702;10.622;2023-12-20T05:23:39;4.80;99.90
23731;DHT22;12046;44.702;10.622;2023-12-20T05:26:05;4.70;99.90
23731;DHT22;12046;44.702;10.622;2023-12-20T05:28:31;4.60;99.90
23731;DHT22;12046;44.702;10.622;2023-12-20T05:30:57;4.50;99.90
23731;DHT22;12046;44.702;10.622;2023-12-20T05:33:24;4.50;99.90
23731;DHT22;12046;44.702;10.622;2023-12-20T05:35:50;4.40;99.90
23731;DHT22;12046;44.702;10.622;2023-12-20T05:38:16;4.30;99.90
23731;DHT22;12046;44.702;10.622;2023-12-20T05:40:42;4.20;99.90
23731;DHT22;12046;44.702;10.622;2023-12-20T05:43:09;4.20;99.90
23731;DHT22;12046;44.702;10.622;2023-12-20T05:45:34;4.20;99.90
23731;DHT22;12046;44.702;10.622;2023-12-20T05:48:00;4.10;99.90
23731;DHT22;12046;44.702;10.622;2023-12-20T05:50:26;4.10;99.90
23731;DHT22;12046;44.702;10.622;2023-12-20T05:52:52;4.00;99.90
23731;DHT22;12046;44.702;10.622;2023-12-20T05:55:19;4.00;99.90
23731;DHT22;12046;44.702;10.622;2023-12-20T05:57:45;4.00;99.90
23731;DHT22;12046;44.702;10.622;2023-12-20T06:00:11;3.90;99.90
23731;DHT22;12046;44.702;10.622;2023-12-20T06:02:37;3.90;99.90
23731;DHT22;12046;44.702;10.622;2023-12-20T06:05:04;3.90;99.90
23731;DHT22;12046;44.702;10.622;2023-12-20T06:07:30;3.90;99.90
23731;DHT22;12046;44.702;10.622;2023-12-20T06:09:56;3.90;99.90
23731;DHT22;12046;44.702;10.622;2023-12-20T06:12:25;4.00;99.90
23731;DHT22;12046;44.702;10.622;2023-12-20T06:14:52;4.00;99.90
23731;DHT22;12046;44.702;10.622;2023-12-20T06:17:18;4.00;99.90
23731;DHT22;12046;44.702;10.622;2023-12-20T06:19:44;4.10;99.90
23731;DHT22;12046;44.702;10.622;2023-12-20T06:22:14;4.10;99.90
23731;DHT22;12046;44.702;10.622;2023-12-20T06:24:39;4.20;99.90
23731;DHT22;12046;44.702;10.622;2023-12-20T06:27:05;4.30;99.90
23731;DHT22;12046;44.702;10.622;2023-12-20T06:29:31;4.40;99.90
23731;DHT22;12046;44.702;10.622;2023-12-20T06:31:57;4.50;99.90
23731;DHT22;12046;44.702;10.622;2023-12-20T06:34:23;4.50;99.90
23731;DHT22;12046;44.702;10.622;2023-12-20T06:36:49;4.60;99.90
23731;DHT22;12046;44.702;10.622;2023-12-20T06:39:15;4.60;99.90
23731;DHT22;12046;44.702;10.622;2023-12-20T06:41:41;4.70;99.90
23731;DHT22;12046;44.702;10.622;2023-12-20T06:44:08;4.80;99.90
23731;DHT22;12046;44.702;10.622;2023-12-20T06:46:34;4.80;99.90
23731;DHT22;12046;44.702;10.622;2023-12-20T06:48:59;4.80;99.90
23731;DHT22;12046;44.702;10.622;2023-12-20T06:51:25;4.90;99.90
23731;DHT22;12046;44.702;10.622;2023-12-20T06:53:52;5.00;99.90
23731;DHT22;12046;44.702;10.622;2023-12-20T06:56:18;5.00;99.90
23731;DHT22;12046;44.702;10.622;2023-12-20T06:58:44;5.10;99.90
23731;DHT22;12046;44.702;10.622;2023-12-20T07:01:15;5.20;99.90
23731;DHT22;12046;44.702;10.622;2023-12-20T07:03:41;5.30;99.90
23731;DHT22;12046;44.702;10.622;2023-12-20T07:06:07;5.40;99.90
23731;DHT22;12046;44.702;10.622;2023-12-20T07:08:34;5.40;99.90
23731;DHT22;12046;44.702;10.622;2023-12-20T07:11:00;5.50;99.90
23731;DHT22;12046;44.702;10.622;2023-12-20T07:13:26;5.50;99.90
23731;DHT22;12046;44.702;10.622;2023-12-20T07:15:52;5.60;99.90
23731;DHT22;12046;44.702;10.622;2023-12-20T07:18:17;5.70;99.90
23731;DHT22;12046;44.702;10.622;2023-12-20T07:20:43;5.70;99.90
23731;DHT22;12046;44.702;10.622;2023-12-20T07:23:09;5.80;99.90
23731;DHT22;12046;44.702;10.622;2023-12-20T07:25:35;5.90;99.90
23731;DHT22;12046;44.702;10.622;2023-12-20T07:28:01;6.00;99.90
23731;DHT22;12046;44.702;10.622;2023-12-20T07:30:27;6.00;99.90
23731;DHT22;12046;44.702;10.622;2023-12-20T07:32:53;6.10;99.90
23731;DHT22;12046;44.702;10.622;2023-12-20T07:35:19;6.10;99.90
23731;DHT22;12046;44.702;10.622;2023-12-20T07:37:45;6.20;99.90
23731;DHT22;12046;44.702;10.622;2023-12-20T07:40:11;6.20;99.90
23731;DHT22;12046;44.702;10.622;2023-12-20T07:42:37;6.20;99.90
23731;DHT22;12046;44.702;10.622;2023-12-20T07:45:03;6.20;99.90
23731;DHT22;12046;44.702;10.622;2023-12-20T07:47:29;6.30;99.90
23731;DHT22;12046;44.702;10.622;2023-12-20T07:49:55;6.30;99.90
23731;DHT22;12046;44.702;10.622;2023-12-20T07:52:21;6.30;99.90
23731;DHT22;12046;44.702;10.622;2023-12-20T07:54:48;6.40;99.90
23731;DHT22;12046;44.702;10.622;2023-12-20T07:57:13;6.40;99.90
23731;DHT22;12046;44.702;10.622;2023-12-20T07:59:39;6.50;99.90
23731;DHT22;12046;44.702;10.622;2023-12-20T08:02:05;6.50;99.90
23731;DHT22;12046;44.702;10.622;2023-12-20T08:04:32;6.50;99.90
23731;DHT22;12046;44.702;10.622;2023-12-20T08:06:58;6.60;99.90
23731;DHT22;12046;44.702;10.622;2023-12-20T08:09:24;6.60;99.90
23731;DHT22;12046;44.702;10.622;2023-12-20T08:11:50;6.60;99.90
23731;DHT22;12046;44.702;10.622;2023-12-20T08:14:16;6.60;99.90
23731;DHT22;12046;44.702;10.622;2023-12-20T08:16:41;6.70;99.90
23731;DHT22;12046;44.702;10.622;2023-12-20T08:19:07;6.70;99.90
23731;DHT22;12046;44.702;10.622;2023-12-20T08:21:33;6.80;99.90
23731;DHT22;12046;44.702;10.622;2023-12-20T08:23:59;6.90;99.90
23731;DHT22;12046;44.702;10.622;2023-12-20T08:26:26;7.00;99.90
23731;DHT22;12046;44.702;10.622;2023-12-20T08:28:52;7.10;99.90
23731;DHT22;12046;44.702;10.622;2023-12-20T08:31:18;7.20;99.90
23731;DHT22;12046;44.702;10.622;2023-12-20T08:33:46;7.20;99.90
23731;DHT22;12046;44.702;10.622;2023-12-20T08:36:12;7.40;99.90
23731;DHT22;12046;44.702;10.622;2023-12-20T08:38:38;7.50;99.90
23731;DHT22;12046;44.702;10.622;2023-12-20T08:41:04;7.60;99.90
23731;DHT22;12046;44.702;10.622;2023-12-20T08:43:34;7.60;99.90
23731;DHT22;12046;44.702;10.622;2023-12-20T08:46:01;7.70;99.90
23731;DHT22;12046;44.702;10.622;2023-12-20T08:48:27;7.80;99.90
23731;DHT22;12046;44.702;10.622;2023-12-20T08:50:53;7.80;99.90
23731;DHT22;12046;44.702;10.622;2023-12-20T08:53:19;7.80;99.90
23731;DHT22;12046;44.702;10.622;2023-12-20T08:55:45;7.90;99.90
23731;DHT22;12046;44.702;10.622;2023-12-20T08:58:11;7.90;99.90
23731;DHT22;12046;44.702;10.622;2023-12-20T09:00:37;7.90;99.90
23731;DHT22;12046;44.702;10.622;2023-12-20T09:03:04;8.00;99.90
23731;DHT22;12046;44.702;10.622;2023-12-20T09:05:30;8.00;99.90
23731;DHT22;12046;44.702;10.622;2023-12-20T09:07:56;8.00;99.90
23731;DHT22;12046;44.702;10.622;2023-12-20T09:10:22;7.90;99.90
23731;DHT22;12046;44.702;10.622;2023-12-20T09:12:51;7.90;99.90
23731;DHT22;12046;44.702;10.622;2023-12-20T09:15:25;7.90;99.90
23731;DHT22;12046;44.702;10.622;2023-12-20T09:17:51;8.00;99.90
23731;DHT22;12046;44.702;10.622;2023-12-20T09:20:17;8.00;99.90
23731;DHT22;12046;44.702;10.622;2023-12-20T09:22:42;8.00;99.90
23731;DHT22;12046;44.702;10.622;2023-12-20T09:25:10;8.00;99.90
23731;DHT22;12046;44.702;10.622;2023-12-20T09:27:36;8.10;99.90
23731;DHT22;12046;44.702;10.622;2023-12-20T09:30:02;8.10;99.90
23731;DHT22;12046;44.702;10.622;2023-12-20T09:32:29;8.20;99.90
23731;DHT22;12046;44.702;10.622;2023-12-20T09:34:55;8.20;99.90
23731;DHT22;12046;44.702;10.622;2023-12-20T09:37:21;8.20;99.90
23731;DHT22;12046;44.702;10.622;2023-12-20T09:39:47;8.20;99.90
23731;DHT22;12046;44.702;10.622;2023-12-20T09:42:16;8.30;99.90
23731;DHT22;12046;44.702;10.622;2023-12-20T09:44:42;8.40;99.90
23731;DHT22;12046;44.702;10.622;2023-12-20T09:47:11;8.40;99.90
23731;DHT22;12046;44.702;10.622;2023-12-20T09:49:37;8.50;99.90
23731;DHT22;12046;44.702;10.622;2023-12-20T09:52:05;8.60;99.90
23731;DHT22;12046;44.702;10.622;2023-12-20T09:54:33;8.70;99.90
23731;DHT22;12046;44.702;10.622;2023-12-20T09:56:59;8.80;99.90
23731;DHT22;12046;44.702;10.622;2023-12-20T09:59:25;8.90;99.90
23731;DHT22;12046;44.702;10.622;2023-12-20T10:01:55;9.00;99.90
23731;DHT22;12046;44.702;10.622;2023-12-20T10:04:22;9.10;99.90
23731;DHT22;12046;44.702;10.622;2023-12-20T10:06:48;9.20;99.90
23731;DHT22;12046;44.702;10.622;2023-12-20T10:09:14;9.30;99.90
23731;DHT22;12046;44.702;10.622;2023-12-20T10:11:40;9.50;99.90
23731;DHT22;12046;44.702;10.622;2023-12-20T10:14:06;9.60;99.90
23731;DHT22;12046;44.702;10.622;2023-12-20T10:16:33;9.80;99.90
23731;DHT22;12046;44.702;10.622;2023-12-20T10:18:59;10.00;99.90
23731;DHT22;12046;44.702;10.622;2023-12-20T10:21:26;10.10;99.90
23731;DHT22;12046;44.702;10.622;2023-12-20T10:23:57;10.30;99.80
23731;DHT22;12046;44.702;10.622;2023-12-20T10:26:25;10.60;99.60
23731;DHT22;12046;44.702;10.622;2023-12-20T10:28:54;10.80;99.40
23731;DHT22;12046;44.702;10.622;2023-12-20T10:31:30;11.20;99.20
23731;DHT22;12046;44.702;10.622;2023-12-20T10:33:59;11.90;99.10
23731;DHT22;12046;44.702;10.622;2023-12-20T10:36:28;12.70;98.20
23731;DHT22;12046;44.702;10.622;2023-12-20T10:38:55;13.30;97.30
23731;DHT22;12046;44.702;10.622;2023-12-20T10:41:30;13.70;96.30
23731;DHT22;12046;44.702;10.622;2023-12-20T10:44:04;14.20;95.30
23731;DHT22;12046;44.702;10.622;2023-12-20T10:46:34;14.70;94.30
23731;DHT22;12046;44.702;10.622;2023-12-20T10:49:05;15.10;93.30
23731;DHT22;12046;44.702;10.622;2023-12-20T10:51:34;15.30;91.60
23731;DHT22;12046;44.702;10.622;2023-12-20T10:54:00;15.30;90.90
23731;DHT22;12046;44.702;10.622;2023-12-20T10:56:31;15.20;90.30
23731;DHT22;12046;44.702;10.622;2023-12-20T10:59:00;15.10;89.40
23731;DHT22;12046;44.702;10.622;2023-12-20T11:01:29;14.90;88.70
23731;DHT22;12046;44.702;10.622;2023-12-20T11:03:55;14.60;88.10
23731;DHT22;12046;44.702;10.622;2023-12-20T11:06:35;14.40;87.80
23731;DHT22;12046;44.702;10.622;2023-12-20T11:09:24;14.10;87.40
23731;DHT22;12046;44.702;10.622;2023-12-20T11:14:51;13.50;86.80
23731;DHT22;12046;44.702;10.622;2023-12-20T11:17:18;13.20;86.90
23731;DHT22;12046;44.702;10.622;2023-12-20T11:22:22;12.70;88.10
23731;DHT22;12046;44.702;10.622;2023-12-20T11:24:48;12.40;88.70
23731;DHT22;12046;44.702;10.622;2023-12-20T11:27:14;12.10;89.50
23731;DHT22;12046;44.702;10.622;2023-12-20T11:29:41;11.90;90.10
23731;DHT22;12046;44.702;10.622;2023-12-20T11:34:51;11.50;90.80
23731;DHT22;12046;44.702;10.622;2023-12-20T11:37:17;11.40;91.10
23731;DHT22;12046;44.702;10.622;2023-12-20T11:39:44;11.30;91.40
23731;DHT22;12046;44.702;10.622;2023-12-20T11:42:10;11.20;91.70
23731;DHT22;12046;44.702;10.622;2023-12-20T11:44:37;11.10;91.80
23731;DHT22;12046;44.702;10.622;2023-12-20T11:47:03;11.00;92.00
23731;DHT22;12046;44.702;10.622;2023-12-20T11:49:29;10.90;92.20
23731;DHT22;12046;44.702;10.622;2023-12-20T11:51:56;10.90;92.40
23731;DHT22;12046;44.702;10.622;2023-12-20T11:54:22;10.70;92.50
23731;DHT22;12046;44.702;10.622;2023-12-20T11:56:48;10.70;92.60
23731;DHT22;12046;44.702;10.622;2023-12-20T11:59:15;10.60;92.70
23731;DHT22;12046;44.702;10.622;2023-12-20T12:01:48;10.60;92.80
23731;DHT22;12046;44.702;10.622;2023-12-20T12:04:14;10.50;92.80
23731;DHT22;12046;44.702;10.622;2023-12-20T12:06:41;10.40;92.90
23731;DHT22;12046;44.702;10.622;2023-12-20T12:09:07;10.30;93.20
23731;DHT22;12046;44.702;10.622;2023-12-20T12:11:34;10.30;93.30
23731;DHT22;12046;44.702;10.622;2023-12-20T12:14:01;10.30;93.50
23731;DHT22;12046;44.702;10.622;2023-12-20T12:16:27;10.30;93.60
23731;DHT22;12046;44.702;10.622;2023-12-20T12:18:58;10.30;93.70
23731;DHT22;12046;44.702;10.622;2023-12-20T12:21:25;10.30;93.80
23731;DHT22;12046;44.702;10.622;2023-12-20T12:23:51;10.30;94.00
23731;DHT22;12046;44.702;10.622;2023-12-20T12:26:17;10.30;94.00
23731;DHT22;12046;44.702;10.622;2023-12-20T12:28:43;10.30;94.10
23731;DHT22;12046;44.702;10.622;2023-12-20T12:31:17;10.20;94.20
23731;DHT22;12046;44.702;10.622;2023-12-20T12:33:43;10.30;94.30
23731;DHT22;12046;44.702;10.622;2023-12-20T12:36:10;10.30;94.40
23731;DHT22;12046;44.702;10.622;2023-12-20T12:38:37;10.30;94.40
23731;DHT22;12046;44.702;10.622;2023-12-20T12:41:04;10.30;94.40
23731;DHT22;12046;44.702;10.622;2023-12-20T12:43:31;10.30;94.40
23731;DHT22;12046;44.702;10.622;2023-12-20T12:45:56;10.30;94.40
23731;DHT22;12046;44.702;10.622;2023-12-20T12:48:22;10.20;94.40
23731;DHT22;12046;44.702;10.622;2023-12-20T12:50:48;10.20;94.40
23731;DHT22;12046;44.702;10.622;2023-12-20T12:53:14;10.20;94.40
23731;DHT22;12046;44.702;10.622;2023-12-20T12:55:40;10.20;94.40
23731;DHT22;12046;44.702;10.622;2023-12-20T12:58:05;10.20;94.40
23731;DHT22;12046;44.702;10.622;2023-12-20T13:00:31;10.20;94.40
23731;DHT22;12046;44.702;10.622;2023-12-20T13:02:57;10.20;94.40
23731;DHT22;12046;44.702;10.622;2023-12-20T13:05:23;10.10;94.40
23731;DHT22;12046;44.702;10.622;2023-12-20T13:07:48;10.10;94.50
23731;DHT22;12046;44.702;10.622;2023-12-20T13:10:14;10.10;94.60
23731;DHT22;12046;44.702;10.622;2023-12-20T13:12:43;10.20;94.60
23731;DHT22;12046;44.702;10.622;2023-12-20T13:15:09;10.20;94.70
23731;DHT22;12046;44.702;10.622;2023-12-20T13:17:35;10.20;94.70
23731;DHT22;12046;44.702;10.622;2023-12-20T13:20:00;10.20;94.70
23731;DHT22;12046;44.702;10.622;2023-12-20T13:22:26;10.20;94.70
23731;DHT22;12046;44.702;10.622;2023-12-20T13:24:52;10.30;94.80
23731;DHT22;12046;44.702;10.622;2023-12-20T13:27:18;10.30;94.80
23731;DHT22;12046;44.702;10.622;2023-12-20T13:29:44;10.30;94.90
23731;DHT22;12046;44.702;10.622;2023-12-20T13:32:10;10.30;95.00
23731;DHT22;12046;44.702;10.622;2023-12-20T13:34:37;10.30;95.00
23731;DHT22;12046;44.702;10.622;2023-12-20T13:37:03;10.40;95.10
23731;DHT22;12046;44.702;10.622;2023-12-20T13:39:30;10.50;95.20
23731;DHT22;12046;44.702;10.622;2023-12-20T13:41:57;10.70;95.20
23731;DHT22;12046;44.702;10.622;2023-12-20T13:44:24;10.90;95.20
23731;DHT22;12046;44.702;10.622;2023-12-20T13:46:51;11.00;94.90
23731;DHT22;12046;44.702;10.622;2023-12-20T13:49:16;11.00;94.70
23731;DHT22;12046;44.702;10.622;2023-12-20T13:51:42;11.10;94.60
23731;DHT22;12046;44.702;10.622;2023-12-20T13:54:08;11.00;94.50
23731;DHT22;12046;44.702;10.622;2023-12-20T13:56:34;11.00;94.40
23731;DHT22;12046;44.702;10.622;2023-12-20T13:59:00;10.90;94.30
23731;DHT22;12046;44.702;10.622;2023-12-20T14:01:26;10.90;94.40
23731;DHT22;12046;44.702;10.622;2023-12-20T14:03:53;10.80;94.40
23731;DHT22;12046;44.702;10.622;2023-12-20T14:06:19;10.70;94.50
23731;DHT22;12046;44.702;10.622;2023-12-20T14:08:45;10.70;94.50
23731;DHT22;12046;44.702;10.622;2023-12-20T14:11:11;10.60;94.60
23731;DHT22;12046;44.702;10.622;2023-12-20T14:13:37;10.50;94.70
23731;DHT22;12046;44.702;10.622;2023-12-20T14:16:03;10.50;94.80
23731;DHT22;12046;44.702;10.622;2023-12-20T14:18:29;10.40;94.90
23731;DHT22;12046;44.702;10.622;2023-12-20T14:20:56;10.40;95.00
23731;DHT22;12046;44.702;10.622;2023-12-20T14:23:21;10.40;95.30
23731;DHT22;12046;44.702;10.622;2023-12-20T14:25:48;10.30;95.10
23731;DHT22;12046;44.702;10.622;2023-12-20T14:28:15;10.30;95.00
23731;DHT22;12046;44.702;10.622;2023-12-20T14:30:40;10.30;95.00
23731;DHT22;12046;44.702;10.622;2023-12-20T14:33:06;10.30;95.00
23731;DHT22;12046;44.702;10.622;2023-12-20T14:35:32;10.30;95.10
23731;DHT22;12046;44.702;10.622;2023-12-20T14:37:58;10.30;95.10
23731;DHT22;12046;44.702;10.622;2023-12-20T14:40:24;10.30;95.10
23731;DHT22;12046;44.702;10.622;2023-12-20T14:42:50;10.20;95.20
23731;DHT22;12046;44.702;10.622;2023-12-20T14:45:16;10.20;95.30
23731;DHT22;12046;44.702;10.622;2023-12-20T14:47:43;10.20;95.30
23731;DHT22;12046;44.702;10.622;2023-12-20T14:50:09;10.20;95.40
23731;DHT22;12046;44.702;10.622;2023-12-20T14:52:36;10.20;95.50
23731;DHT22;12046;44.702;10.622;2023-12-20T14:55:02;10.20;95.60
23731;DHT22;12046;44.702;10.622;2023-12-20T14:57:28;10.20;95.70
23731;DHT22;12046;44.702;10.622;2023-12-20T14:59:55;10.20;95.80
23731;DHT22;12046;44.702;10.622;2023-12-20T15:02:22;10.10;95.80
23731;DHT22;12046;44.702;10.622;2023-12-20T15:04:48;10.10;96.00
23731;DHT22;12046;44.702;10.622;2023-12-20T15:07:13;10.00;96.00
23731;DHT22;12046;44.702;10.622;2023-12-20T15:09:39;10.00;96.10
23731;DHT22;12046;44.702;10.622;2023-12-20T15:12:05;9.90;96.20
23731;DHT22;12046;44.702;10.622;2023-12-20T15:14:31;9.90;96.40
23731;DHT22;12046;44.702;10.622;2023-12-20T15:16:57;9.90;96.50
23731;DHT22;12046;44.702;10.622;2023-12-20T15:19:23;9.80;96.60
23731;DHT22;12046;44.702;10.622;2023-12-20T15:21:49;9.80;96.60
23731;DHT22;12046;44.702;10.622;2023-12-20T15:24:16;9.70;96.70
23731;DHT22;12046;44.702;10.622;2023-12-20T15:26:44;9.70;96.80
23731;DHT22;12046;44.702;10.622;2023-12-20T15:29:10;9.60;96.80
23731;DHT22;12046;44.702;10.622;2023-12-20T15:31:45;9.60;97.00